Aviation Digital Data Service (ADDS)

Output produced by METARs form (1436 UTC 10 December 2016)
found at http://aviationweather.gov/adds/metars/
 
KHKY 101126Z 1012/1112 VRB03KT P6SM FEW250